createdAt,value
2023-04-02T00:02:55.110Z,89.90
2023-04-02T00:06:44.902Z,89.30
2023-04-02T00:10:48.530Z,90.00
2023-04-02T00:14:35.767Z,90.00
2023-04-02T00:18:21.934Z,89.80
2023-04-02T00:22:07.498Z,90.00
2023-04-02T00:25:49.266Z,90.10
2023-04-02T00:29:31.061Z,90.30
2023-04-02T00:33:17.334Z,90.30
2023-04-02T00:36:59.943Z,90.20
2023-04-02T00:40:42.645Z,90.30
2023-04-02T00:44:29.285Z,90.40
2023-04-02T00:48:32.440Z,90.40
2023-04-02T00:52:22.247Z,90.30
2023-04-02T00:56:14.668Z,90.40
2023-04-02T01:00:08.266Z,90.40
2023-04-02T01:03:59.168Z,90.50
2023-04-02T01:07:52.956Z,90.50
2023-04-02T01:11:53.124Z,90.50
2023-04-02T01:15:43.658Z,90.70
2023-04-02T01:19:58.592Z,90.60
2023-04-02T01:24:01.165Z,90.60
2023-04-02T01:28:00.602Z,90.80
2023-04-02T01:31:45.411Z,90.80
2023-04-02T01:35:31.446Z,91.00
2023-04-02T01:39:24.881Z,91.00
2023-04-02T01:43:12.638Z,91.10
2023-04-02T01:46:55.523Z,91.00
2023-04-02T01:50:39.239Z,91.20
2023-04-02T01:54:22.305Z,91.20
2023-04-02T01:58:04.723Z,91.30
2023-04-02T02:02:09.408Z,91.30
2023-04-02T02:05:51.755Z,91.30
2023-04-02T02:09:36.017Z,91.50
2023-04-02T02:13:17.930Z,91.50
2023-04-02T02:17:02.460Z,91.60
2023-04-02T02:20:44.615Z,91.60
2023-04-02T02:24:32.306Z,91.60
2023-04-02T02:28:35.339Z,91.70
2023-04-02T02:32:20.652Z,91.70
2023-04-02T02:36:15.049Z,91.80
2023-04-02T02:39:59.507Z,91.80
2023-04-02T02:43:56.112Z,91.80
2023-04-02T02:47:39.163Z,91.90
2023-04-02T02:51:27.510Z,92.00
2023-04-02T02:55:14.501Z,92.00
2023-04-02T02:58:56.673Z,92.00
2023-04-02T03:02:41.661Z,92.10
2023-04-02T03:06:24.379Z,92.10
2023-04-02T03:10:32.608Z,92.10
2023-04-02T03:14:26.627Z,92.10
2023-04-02T03:18:20.325Z,92.20
2023-04-02T03:22:12.576Z,92.10
2023-04-02T03:26:00.442Z,92.20
2023-04-02T03:29:49.547Z,92.20
2023-04-02T03:33:35.927Z,92.30
2023-04-02T03:37:39.192Z,92.30
2023-04-02T03:41:27.115Z,92.30
2023-04-02T03:45:25.565Z,92.40
2023-04-02T03:49:13.588Z,92.30
2023-04-02T03:52:58.268Z,92.40
2023-04-02T03:56:40.377Z,92.60
2023-04-02T04:00:42.137Z,92.40
2023-04-02T04:04:28.074Z,92.60
2023-04-02T04:08:27.618Z,92.40
2023-04-02T04:12:43.748Z,92.40
2023-04-02T04:16:48.446Z,92.40
2023-04-02T04:20:36.651Z,92.40
2023-04-02T04:24:22.622Z,92.40
2023-04-02T04:28:24.117Z,92.40
2023-04-02T04:32:16.994Z,92.50
2023-04-02T04:36:01.431Z,92.50
2023-04-02T04:39:49.210Z,92.60
2023-04-02T04:43:44.065Z,92.60
2023-04-02T04:47:35.941Z,92.60
2023-04-02T04:51:31.844Z,92.60
2023-04-02T04:55:34.444Z,92.70
2023-04-02T04:59:23.606Z,92.70
2023-04-02T05:03:18.725Z,92.70
2023-04-02T05:07:10.352Z,92.70
2023-04-02T05:10:58.276Z,92.70
2023-04-02T05:15:22.494Z,92.70
2023-04-02T05:19:23.382Z,92.80
2023-04-02T05:23:27.444Z,92.70
2023-04-02T05:27:44.197Z,92.70
2023-04-02T05:31:43.320Z,92.70
2023-04-02T05:35:31.974Z,92.70
2023-04-02T05:39:24.482Z,92.70
2023-04-02T05:43:10.968Z,92.70
2023-04-02T05:47:06.676Z,93.10
2023-04-02T05:50:54.713Z,92.70
2023-04-02T05:54:49.111Z,92.80
2023-04-02T05:58:43.976Z,92.70
2023-04-02T06:02:36.296Z,92.80
2023-04-02T06:06:42.591Z,92.80
2023-04-02T06:10:42.368Z,92.80
2023-04-02T06:14:24.135Z,92.80
2023-04-02T06:18:16.201Z,92.90
2023-04-02T06:22:20.545Z,92.90
2023-04-02T06:26:24.058Z,92.80
2023-04-02T06:30:14.102Z,92.90
2023-04-02T06:33:56.459Z,92.80
2023-04-02T06:37:41.723Z,92.90
2023-04-02T06:41:24.377Z,92.80
2023-04-02T06:45:14.346Z,92.80
2023-04-02T06:49:04.582Z,92.70
2023-04-02T06:52:56.311Z,92.80
2023-04-02T06:56:43.471Z,92.80
2023-04-02T07:00:51.984Z,92.80
2023-04-02T07:04:34.229Z,92.80
2023-04-02T07:08:16.622Z,92.90
2023-04-02T07:11:58.376Z,93.00
2023-04-02T07:15:40.464Z,93.00
2023-04-02T07:19:23.108Z,93.00
2023-04-02T07:23:05.006Z,93.10
2023-04-02T07:26:48.295Z,93.20
2023-04-02T07:30:29.990Z,93.20
2023-04-02T07:34:12.038Z,92.90
2023-04-02T07:37:53.789Z,93.10
2023-04-02T07:41:54.789Z,93.50
2023-04-02T07:45:36.922Z,92.70
2023-04-02T07:49:19.041Z,93.20
2023-04-02T07:53:01.229Z,93.00
2023-04-02T07:56:43.023Z,93.00
2023-04-02T08:00:26.694Z,93.00
2023-04-02T08:04:21.359Z,92.90
2023-04-02T08:08:03.163Z,92.80
2023-04-02T08:11:46.485Z,93.00
2023-04-02T08:15:28.433Z,92.90
2023-04-02T08:19:10.304Z,93.30
2023-04-02T08:22:52.227Z,93.00
2023-04-02T08:26:34.094Z,93.00
2023-04-02T08:30:17.194Z,93.10
2023-04-02T08:33:59.009Z,93.20
2023-04-02T08:37:41.872Z,93.30
2023-04-02T08:41:28.778Z,93.70
2023-04-02T08:45:27.703Z,93.40
2023-04-02T08:49:19.673Z,93.00
2023-04-02T08:53:21.929Z,93.40
2023-04-02T08:57:18.758Z,93.40
2023-04-02T09:01:03.287Z,93.00
2023-04-02T09:04:45.302Z,93.40
2023-04-02T09:08:28.903Z,93.40
2023-04-02T09:12:26.162Z,93.40
2023-04-02T09:16:13.243Z,93.10
2023-04-02T09:20:18.773Z,93.20
2023-04-02T09:24:01.587Z,93.00
2023-04-02T09:27:49.176Z,93.20
2023-04-02T09:31:37.670Z,93.00
2023-04-02T09:35:36.591Z,93.00
2023-04-02T09:39:21.155Z,93.00
2023-04-02T09:43:06.247Z,92.90
2023-04-02T09:46:53.046Z,92.80
2023-04-02T09:50:35.008Z,92.60
2023-04-02T09:54:17.366Z,93.00
2023-04-02T09:58:14.708Z,93.00
2023-04-02T10:01:56.655Z,92.30
2023-04-02T10:05:40.997Z,93.30
2023-04-02T10:09:32.323Z,92.90
2023-04-02T10:13:43.069Z,91.80
2023-04-02T10:17:36.945Z,91.30
2023-04-02T10:21:25.235Z,91.50
2023-04-02T10:25:18.611Z,92.00
2023-04-02T10:29:00.278Z,91.30
2023-04-02T10:32:45.515Z,91.50
2023-04-02T10:36:48.201Z,91.60
2023-04-02T10:40:42.570Z,92.10
2023-04-02T10:44:49.130Z,91.20
2023-04-02T10:48:39.292Z,91.40
2023-04-02T10:52:31.073Z,91.40
2023-04-02T10:56:14.015Z,90.40
2023-04-02T11:00:17.485Z,91.40
2023-04-02T11:04:03.238Z,90.50
2023-04-02T11:08:10.104Z,90.90
2023-04-02T11:11:54.820Z,89.00
2023-04-02T11:15:37.600Z,90.80
2023-04-02T11:19:19.691Z,91.00
2023-04-02T11:23:14.801Z,90.90
2023-04-02T11:27:12.147Z,89.60
2023-04-02T11:30:55.344Z,88.30
2023-04-02T11:35:03.009Z,90.40
2023-04-02T11:38:50.136Z,88.60
2023-04-02T11:42:35.411Z,90.60
2023-04-02T11:46:20.426Z,90.10
2023-04-02T11:50:04.419Z,90.20
2023-04-02T11:53:47.624Z,90.30
2023-04-02T11:57:37.358Z,89.70
2023-04-02T12:01:45.335Z,88.50
2023-04-02T12:05:46.120Z,87.30
2023-04-02T12:09:49.701Z,85.70
2023-04-02T12:13:40.504Z,87.90
2023-04-02T12:17:32.554Z,84.90
2023-04-02T12:21:19.248Z,86.30
2023-04-02T12:25:31.372Z,84.90
2023-04-02T12:29:27.514Z,82.80
2023-04-02T12:33:33.776Z,82.60
2023-04-02T12:37:41.523Z,82.10
2023-04-02T12:41:36.135Z,81.80
2023-04-02T12:45:36.658Z,82.80
2023-04-02T12:49:37.930Z,82.30
2023-04-02T12:53:24.370Z,80.90
2023-04-02T12:57:23.015Z,82.10
2023-04-02T13:01:14.352Z,79.90
2023-04-02T13:05:01.479Z,80.60
2023-04-02T13:08:43.686Z,82.70
2023-04-02T13:12:39.367Z,83.20
2023-04-02T13:16:28.223Z,81.20
2023-04-02T13:20:29.288Z,82.10
2023-04-02T13:24:28.104Z,79.10
2023-04-02T13:28:10.285Z,79.90
2023-04-02T13:31:54.048Z,82.50
2023-04-02T13:35:36.023Z,81.90
2023-04-02T13:39:19.331Z,83.00
2023-04-02T13:43:02.721Z,82.40
2023-04-02T13:46:44.448Z,81.70
2023-04-02T13:50:26.932Z,81.10
2023-04-02T13:54:18.273Z,81.30
2023-04-02T13:58:00.000Z,79.50
2023-04-02T14:01:44.873Z,80.50
2023-04-02T14:05:55.459Z,79.40
2023-04-02T14:09:47.743Z,79.10
2023-04-02T14:13:35.742Z,78.20
2023-04-02T14:17:36.922Z,79.00
2023-04-02T14:21:18.634Z,77.00
2023-04-02T14:25:28.698Z,79.40
2023-04-02T14:29:24.421Z,76.30
2023-04-02T14:33:43.657Z,76.10
2023-04-02T14:37:41.709Z,75.30
2023-04-02T14:41:44.603Z,76.70
2023-04-02T14:45:26.342Z,75.10
2023-04-02T14:49:34.994Z,78.00
2023-04-02T14:53:42.111Z,76.20
2023-04-02T14:57:31.390Z,74.40
2023-04-02T15:01:21.610Z,74.40
2023-04-02T15:05:18.668Z,74.70
2023-04-02T15:09:24.137Z,74.20
2023-04-02T15:13:12.675Z,73.70
2023-04-02T15:16:54.493Z,75.10
2023-04-02T15:20:51.328Z,75.90
2023-04-02T15:24:43.226Z,74.20
2023-04-02T15:29:02.893Z,76.00
2023-04-02T15:32:45.951Z,72.90
2023-04-02T15:36:51.626Z,74.90
2023-04-02T15:40:55.051Z,74.00
2023-04-02T15:44:46.323Z,73.20
2023-04-02T15:48:48.183Z,73.50
2023-04-02T15:52:49.673Z,73.70
2023-04-02T15:56:37.721Z,72.90
2023-04-02T16:00:30.843Z,73.90
2023-04-02T16:04:21.712Z,73.60
2023-04-02T16:08:34.051Z,73.80
2023-04-02T16:12:19.212Z,72.70
2023-04-02T16:16:10.094Z,74.60
2023-04-02T16:20:00.823Z,74.70
2023-04-02T16:23:43.000Z,74.20
2023-04-02T16:27:33.306Z,74.80
2023-04-02T16:31:36.715Z,73.40
2023-04-02T16:35:44.564Z,72.30
2023-04-02T16:39:41.511Z,72.10
2023-04-02T16:43:48.833Z,73.10
2023-04-02T16:47:47.705Z,72.60
2023-04-02T16:51:32.430Z,72.70
2023-04-02T16:55:38.836Z,75.00
2023-04-02T16:59:32.563Z,72.90
2023-04-02T17:03:40.602Z,73.10
2023-04-02T17:07:40.629Z,73.90
2023-04-02T17:11:52.728Z,73.60
2023-04-02T17:15:41.556Z,73.20
2023-04-02T17:19:26.483Z,74.00
2023-04-02T17:23:13.510Z,74.30
2023-04-02T17:27:11.092Z,74.00
2023-04-02T17:30:57.634Z,73.90
2023-04-02T17:34:39.479Z,74.10
2023-04-02T17:38:41.798Z,74.90
2023-04-02T17:42:36.029Z,73.60
2023-04-02T17:46:28.128Z,73.30
2023-04-02T17:50:24.129Z,72.70
2023-04-02T17:54:17.491Z,73.60
2023-04-02T17:58:05.166Z,72.50
2023-04-02T18:02:22.690Z,73.40
2023-04-02T18:06:16.419Z,72.70
2023-04-02T18:10:07.163Z,73.60
2023-04-02T18:13:58.653Z,73.50
2023-04-02T18:18:02.613Z,73.50
2023-04-02T18:22:21.918Z,73.00
2023-04-02T18:26:34.919Z,72.90
2023-04-02T18:30:40.908Z,73.00
2023-04-02T18:34:44.894Z,73.40
2023-04-02T18:38:34.322Z,73.40
2023-04-02T18:42:34.502Z,74.90
2023-04-02T18:46:37.439Z,73.70
2023-04-02T18:50:46.988Z,74.90
2023-04-02T18:54:34.307Z,74.10
2023-04-02T18:58:28.873Z,74.90
2023-04-02T19:02:26.579Z,74.70
2023-04-02T19:06:20.509Z,75.00
2023-04-02T19:10:23.864Z,75.40
2023-04-02T19:14:12.737Z,75.30
2023-04-02T19:18:10.863Z,75.50
2023-04-02T19:22:18.009Z,75.30
2023-04-02T19:26:17.156Z,75.20
2023-04-02T19:30:11.655Z,75.60
2023-04-02T19:34:25.911Z,75.90
2023-04-02T19:38:20.030Z,76.00
2023-04-02T19:42:20.936Z,76.60
2023-04-02T19:46:03.021Z,76.60
2023-04-02T19:49:44.950Z,77.10
2023-04-02T19:53:26.687Z,77.10
2023-04-02T19:57:12.659Z,77.30
2023-04-02T20:00:55.184Z,77.00
2023-04-02T20:04:37.542Z,77.20
2023-04-02T20:08:19.457Z,77.10
2023-04-02T20:12:01.381Z,77.20
2023-04-02T20:15:43.169Z,77.20
2023-04-02T20:19:24.966Z,77.30
2023-04-02T20:23:07.907Z,77.20
2023-04-02T20:26:49.638Z,77.20
2023-04-02T20:30:32.431Z,77.40
2023-04-02T20:34:14.678Z,77.40
2023-04-02T20:37:56.880Z,77.50
2023-04-02T20:41:38.686Z,77.50
2023-04-02T20:45:20.461Z,77.50
2023-04-02T20:49:02.475Z,77.60
2023-04-02T20:52:44.717Z,77.70
2023-04-02T20:56:27.752Z,77.80
2023-04-02T21:00:10.968Z,77.80
2023-04-02T21:03:58.518Z,77.90
2023-04-02T21:07:40.330Z,78.00
2023-04-02T21:11:22.550Z,78.00
2023-04-02T21:15:04.582Z,78.20
2023-04-02T21:18:47.987Z,78.20
2023-04-02T21:22:29.869Z,78.20
2023-04-02T21:26:14.781Z,78.20
2023-04-02T21:29:56.654Z,78.20
2023-04-02T21:33:41.596Z,78.20
2023-04-02T21:37:23.329Z,78.20
2023-04-02T21:41:13.581Z,78.20
2023-04-02T21:44:56.034Z,78.10
2023-04-02T21:48:38.375Z,78.20
2023-04-02T21:52:20.175Z,78.30
2023-04-02T21:56:07.861Z,79.00
2023-04-02T21:59:49.627Z,78.30
2023-04-02T22:03:33.712Z,78.40
2023-04-02T22:07:15.707Z,78.40
2023-04-02T22:10:57.706Z,78.20
2023-04-02T22:14:39.476Z,78.30
2023-04-02T22:18:21.315Z,78.50
2023-04-02T22:22:03.185Z,78.60
2023-04-02T22:25:44.890Z,78.70
2023-04-02T22:29:26.649Z,78.60
2023-04-02T22:33:08.675Z,78.70
2023-04-02T22:36:50.540Z,78.60
2023-04-02T22:40:32.744Z,78.70
2023-04-02T22:44:16.974Z,78.90
2023-04-02T22:47:58.850Z,79.20
2023-04-02T22:51:40.869Z,79.30
2023-04-02T22:55:22.633Z,79.30
2023-04-02T22:59:04.715Z,79.30
2023-04-02T23:02:46.693Z,79.30
2023-04-02T23:06:28.733Z,79.20
2023-04-02T23:10:10.919Z,79.30
2023-04-02T23:13:54.734Z,79.30
2023-04-02T23:17:37.646Z,79.40
2023-04-02T23:21:20.871Z,79.40
2023-04-02T23:25:02.849Z,79.40
2023-04-02T23:28:44.972Z,79.50
2023-04-02T23:32:26.731Z,79.60
2023-04-02T23:36:18.522Z,79.60
2023-04-02T23:40:00.355Z,79.80
2023-04-02T23:43:42.352Z,79.90
2023-04-02T23:47:24.148Z,79.80
2023-04-02T23:51:06.925Z,79.90
2023-04-02T23:54:48.727Z,79.90
2023-04-02T23:58:30.803Z,79.90
